PWSweather.com
Personal Weather Stations
Station Observations
KIDNAMPA57
Canyon County Idaho, Nampa, ID 83687

Canyon County IdahoNampa, ID 83687

Lat: 43.587235, Lon: -116.49831979999999

Elevation: 2615

Station Type: Davis Vantage Pro 2

www.rockinglweather.com

High Low Average
Temperature 38.0°F3.3°C 27.7°F-2.4°C 32.5°F0.3°C
Dew Point 29.7°F-1.3°C 20.4°F-6.4°C 25.1°F-3.8°C
Winds 14.0 mph 22.5 kmh Calm Calm 4.0 mph SE6.4 kmh SE
Wind Gusts 18.0 mph29.0 kmh 2.0 mph3.2 kmh 10.0 mph16.1 kmh
Humidity 82% 66% 74%
Pressure 30.07 in1018.3 mb 29.86 in1011.2 mb -
Precipitation 0.00 in0.0 mm - -
Hour Temp Dew Point Humidity Winds Wind Gusts Pressure Precip Precip Rate Daily Precip Total
12:00 AM 28.4°F-2.0°C 21.5°F-5.8°C 75% 1.0 mph SE1.6 kmh SE 3.0 mph4.8 kmh 29.86 in1011.2 mb 0.00 in0.0 mm 0.00 in0.0 mm 0.00 in0.0 mm
12:05 AM 28.5°F-1.9°C 21.9°F-5.6°C 76% 3.0 mph SE4.8 kmh SE 4.0 mph6.4 kmh 29.86 in1011.2 mb 0.00 in0.0 mm 0.00 in0.0 mm 0.00 in0.0 mm
12:10 AM 28.5°F-1.9°C 21.9°F-5.6°C 76% 3.0 mph SE4.8 kmh SE 5.0 mph8.0 kmh 29.86 in1011.2 mb 0.00 in0.0 mm 0.00 in0.0 mm 0.00 in0.0 mm
12:15 AM 28.5°F-1.9°C 21.9°F-5.6°C 76% 2.0 mph SE3.2 kmh SE 5.0 mph8.0 kmh 29.86 in1011.2 mb 0.00 in0.0 mm 0.00 in0.0 mm 0.00 in0.0 mm
12:20 AM 28.5°F-1.9°C 21.9°F-5.6°C 76% 3.0 mph SSE4.8 kmh SSE 4.0 mph6.4 kmh 29.86 in1011.2 mb 0.00 in0.0 mm 0.00 in0.0 mm 0.00 in0.0 mm
12:25 AM 28.6°F-1.9°C 22.0°F-5.6°C 76% 2.0 mph SE3.2 kmh SE 4.0 mph6.4 kmh 29.86 in1011.2 mb 0.00 in0.0 mm 0.00 in0.0 mm 0.00 in0.0 mm
12:30 AM 28.7°F-1.8°C 21.8°F-5.7°C 75% Calm Calm 4.0 mph6.4 kmh 29.86 in1011.2 mb 0.00 in0.0 mm 0.00 in0.0 mm 0.00 in0.0 mm
12:35 AM 28.9°F-1.7°C 21.7°F-5.7°C 74% 1.0 mph S1.6 kmh S 2.0 mph3.2 kmh 29.86 in1011.2 mb 0.00 in0.0 mm 0.00 in0.0 mm 0.00 in0.0 mm
12:40 AM 29.0°F-1.7°C 21.8°F-5.7°C 74% 2.0 mph SE3.2 kmh SE 4.0 mph6.4 kmh 29.86 in1011.2 mb 0.00 in0.0 mm 0.00 in0.0 mm 0.00 in0.0 mm
12:45 AM 29.0°F-1.7°C 21.8°F-5.7°C 74% 2.0 mph SE3.2 kmh SE 4.0 mph6.4 kmh 29.86 in1011.2 mb 0.00 in0.0 mm 0.00 in0.0 mm 0.00 in0.0 mm
12:50 AM 29.0°F-1.7°C 22.1°F-5.5°C 75% 1.0 mph SE1.6 kmh SE 5.0 mph8.0 kmh 29.86 in1011.2 mb 0.00 in0.0 mm 0.00 in0.0 mm 0.00 in0.0 mm
12:55 AM 29.0°F-1.7°C 22.1°F-5.5°C 75% 5.0 mph SE8.0 kmh SE 6.0 mph9.7 kmh 29.86 in1011.2 mb 0.00 in0.0 mm 0.00 in0.0 mm 0.00 in0.0 mm
01:00 AM 29.0°F-1.7°C 22.1°F-5.5°C 75% 4.0 mph SE6.4 kmh SE 6.0 mph9.7 kmh 29.86 in1011.2 mb 0.00 in0.0 mm 0.00 in0.0 mm 0.00 in0.0 mm
01:05 AM 29.0°F-1.7°C 22.4°F-5.3°C 76% 3.0 mph SE4.8 kmh SE 6.0 mph9.7 kmh 29.86 in1011.2 mb 0.00 in0.0 mm 0.00 in0.0 mm 0.00 in0.0 mm
01:10 AM 29.0°F-1.7°C 22.4°F-5.3°C 76% 1.0 mph SE1.6 kmh SE 7.0 mph11.3 kmh 29.86 in1011.2 mb 0.00 in0.0 mm 0.00 in0.0 mm 0.00 in0.0 mm
01:15 AM 29.0°F-1.7°C 22.7°F-5.2°C 77% 2.0 mph SE3.2 kmh SE 7.0 mph11.3 kmh 29.86 in1011.2 mb 0.00 in0.0 mm 0.00 in0.0 mm 0.00 in0.0 mm
01:20 AM 29.0°F-1.7°C 22.7°F-5.2°C 77% 3.0 mph SE4.8 kmh SE 6.0 mph9.7 kmh 29.86 in1011.2 mb 0.00 in0.0 mm 0.00 in0.0 mm 0.00 in0.0 mm
01:25 AM 29.0°F-1.7°C 22.7°F-5.2°C 77% 5.0 mph SSE8.0 kmh SSE 6.0 mph9.7 kmh 29.86 in1011.2 mb 0.00 in0.0 mm 0.00 in0.0 mm 0.00 in0.0 mm
01:30 AM 29.1°F-1.6°C 22.8°F-5.1°C 77% 5.0 mph SE8.0 kmh SE 6.0 mph9.7 kmh 29.86 in1011.2 mb 0.00 in0.0 mm 0.00 in0.0 mm 0.00 in0.0 mm
01:35 AM 29.1°F-1.6°C 22.5°F-5.3°C 76% 5.0 mph SE8.0 kmh SE 7.0 mph11.3 kmh 29.86 in1011.2 mb 0.00 in0.0 mm 0.00 in0.0 mm 0.00 in0.0 mm
01:40 AM 29.1°F-1.6°C 22.2°F-5.4°C 75% 4.0 mph S6.4 kmh S 7.0 mph11.3 kmh 29.87 in1011.5 mb 0.00 in0.0 mm 0.00 in0.0 mm 0.00 in0.0 mm
01:45 AM 29.1°F-1.6°C 22.2°F-5.4°C 75% 2.0 mph SSE3.2 kmh SSE 7.0 mph11.3 kmh 29.87 in1011.5 mb 0.00 in0.0 mm 0.00 in0.0 mm 0.00 in0.0 mm
01:50 AM 29.1°F-1.6°C 21.9°F-5.6°C 74% 5.0 mph SE8.0 kmh SE 6.0 mph9.7 kmh 29.87 in1011.5 mb 0.00 in0.0 mm 0.00 in0.0 mm 0.00 in0.0 mm
01:55 AM 29.0°F-1.7°C 21.4°F-5.9°C 73% 2.0 mph SE3.2 kmh SE 6.0 mph9.7 kmh 29.88 in1011.9 mb 0.00 in0.0 mm 0.00 in0.0 mm 0.00 in0.0 mm
02:00 AM 28.9°F-1.7°C 21.4°F-5.9°C 73% 4.0 mph SE6.4 kmh SE 6.0 mph9.7 kmh 29.87 in1011.5 mb 0.00 in0.0 mm 0.00 in0.0 mm 0.00 in0.0 mm
02:05 AM 28.8°F-1.8°C 21.3°F-5.9°C 73% 2.0 mph ESE3.2 kmh ESE 5.0 mph8.0 kmh 29.87 in1011.5 mb 0.00 in0.0 mm 0.00 in0.0 mm 0.00 in0.0 mm
02:10 AM 28.8°F-1.8°C 21.3°F-5.9°C 73% 2.0 mph SE3.2 kmh SE 6.0 mph9.7 kmh 29.87 in1011.5 mb 0.00 in0.0 mm 0.00 in0.0 mm 0.00 in0.0 mm
02:15 AM 28.7°F-1.8°C 21.2°F-6.0°C 73% 3.0 mph SSE4.8 kmh SSE 8.0 mph12.9 kmh 29.88 in1011.9 mb 0.00 in0.0 mm 0.00 in0.0 mm 0.00 in0.0 mm
02:20 AM 28.8°F-1.8°C 21.3°F-5.9°C 73% 4.0 mph SE6.4 kmh SE 6.0 mph9.7 kmh 29.88 in1011.9 mb 0.00 in0.0 mm 0.00 in0.0 mm 0.00 in0.0 mm
02:25 AM 28.7°F-1.8°C 21.2°F-6.0°C 73% 1.0 mph SE1.6 kmh SE 6.0 mph9.7 kmh 29.88 in1011.9 mb 0.00 in0.0 mm 0.00 in0.0 mm 0.00 in0.0 mm
02:30 AM 28.7°F-1.8°C 21.5°F-5.8°C 74% 1.0 mph S1.6 kmh S 6.0 mph9.7 kmh 29.88 in1011.9 mb 0.00 in0.0 mm 0.00 in0.0 mm 0.00 in0.0 mm
02:35 AM 28.7°F-1.8°C 21.5°F-5.8°C 74% 3.0 mph SSE4.8 kmh SSE 5.0 mph8.0 kmh 29.88 in1011.9 mb 0.00 in0.0 mm 0.00 in0.0 mm 0.00 in0.0 mm
02:40 AM 28.7°F-1.8°C 21.5°F-5.8°C 74% 5.0 mph SE8.0 kmh SE 6.0 mph9.7 kmh 29.88 in1011.9 mb 0.00 in0.0 mm 0.00 in0.0 mm 0.00 in0.0 mm
02:45 AM 28.7°F-1.8°C 21.8°F-5.7°C 75% 4.0 mph SE6.4 kmh SE 6.0 mph9.7 kmh 29.88 in1011.9 mb 0.00 in0.0 mm 0.00 in0.0 mm 0.00 in0.0 mm
02:50 AM 28.6°F-1.9°C 21.7°F-5.7°C 75% 4.0 mph SSE6.4 kmh SSE 6.0 mph9.7 kmh 29.88 in1011.9 mb 0.00 in0.0 mm 0.00 in0.0 mm 0.00 in0.0 mm
02:55 AM 28.6°F-1.9°C 21.7°F-5.7°C 75% 3.0 mph SE4.8 kmh SE 6.0 mph9.7 kmh 29.88 in1011.9 mb 0.00 in0.0 mm 0.00 in0.0 mm 0.00 in0.0 mm
03:00 AM 28.7°F-1.8°C 21.8°F-5.7°C 75% 4.0 mph ESE6.4 kmh ESE 6.0 mph9.7 kmh 29.88 in1011.9 mb 0.00 in0.0 mm 0.00 in0.0 mm 0.00 in0.0 mm
03:05 AM 28.7°F-1.8°C 21.8°F-5.7°C 75% 3.0 mph SE4.8 kmh SE 5.0 mph8.0 kmh 29.88 in1011.9 mb 0.00 in0.0 mm 0.00 in0.0 mm 0.00 in0.0 mm
03:10 AM 28.8°F-1.8°C 22.2°F-5.4°C 76% 2.0 mph SE3.2 kmh SE 5.0 mph8.0 kmh 29.89 in1012.2 mb 0.00 in0.0 mm 0.00 in0.0 mm 0.00 in0.0 mm
03:15 AM 28.9°F-1.7°C 22.3°F-5.4°C 76% 3.0 mph SE4.8 kmh SE 5.0 mph8.0 kmh 29.89 in1012.2 mb 0.00 in0.0 mm 0.00 in0.0 mm 0.00 in0.0 mm
03:20 AM 28.9°F-1.7°C 22.3°F-5.4°C 76% 2.0 mph SE3.2 kmh SE 4.0 mph6.4 kmh 29.88 in1011.9 mb 0.00 in0.0 mm 0.00 in0.0 mm 0.00 in0.0 mm
03:25 AM 28.9°F-1.7°C 22.3°F-5.4°C 76% 2.0 mph SE3.2 kmh SE 4.0 mph6.4 kmh 29.88 in1011.9 mb 0.00 in0.0 mm 0.00 in0.0 mm 0.00 in0.0 mm
03:30 AM 28.9°F-1.7°C 22.3°F-5.4°C 76% 1.0 mph SE1.6 kmh SE 4.0 mph6.4 kmh 29.88 in1011.9 mb 0.00 in0.0 mm 0.00 in0.0 mm 0.00 in0.0 mm
03:35 AM 28.9°F-1.7°C 22.0°F-5.6°C 75% 1.0 mph SE1.6 kmh SE 6.0 mph9.7 kmh 29.89 in1012.2 mb 0.00 in0.0 mm 0.00 in0.0 mm 0.00 in0.0 mm
03:40 AM 29.0°F-1.7°C 21.8°F-5.7°C 74% 3.0 mph SSE4.8 kmh SSE 6.0 mph9.7 kmh 29.89 in1012.2 mb 0.00 in0.0 mm 0.00 in0.0 mm 0.00 in0.0 mm
03:45 AM 28.9°F-1.7°C 21.7°F-5.7°C 74% 1.0 mph SE1.6 kmh SE 6.0 mph9.7 kmh 29.88 in1011.9 mb 0.00 in0.0 mm 0.00 in0.0 mm 0.00 in0.0 mm
03:50 AM 28.9°F-1.7°C 21.7°F-5.7°C 74% Calm Calm 4.0 mph6.4 kmh 29.89 in1012.2 mb 0.00 in0.0 mm 0.00 in0.0 mm 0.00 in0.0 mm
03:55 AM 28.9°F-1.7°C 21.7°F-5.7°C 74% 2.0 mph SE3.2 kmh SE 4.0 mph6.4 kmh 29.89 in1012.2 mb 0.00 in0.0 mm 0.00 in0.0 mm 0.00 in0.0 mm
04:00 AM 28.8°F-1.8°C 21.9°F-5.6°C 75% Calm Calm 4.0 mph6.4 kmh 29.88 in1011.9 mb 0.00 in0.0 mm 0.00 in0.0 mm 0.00 in0.0 mm
04:05 AM 28.7°F-1.8°C 21.8°F-5.7°C 75% Calm Calm 6.0 mph9.7 kmh 29.89 in1012.2 mb 0.00 in0.0 mm 0.00 in0.0 mm 0.00 in0.0 mm
04:10 AM 28.6°F-1.9°C 21.7°F-5.7°C 75% 4.0 mph SE6.4 kmh SE 7.0 mph11.3 kmh 29.88 in1011.9 mb 0.00 in0.0 mm 0.00 in0.0 mm 0.00 in0.0 mm
04:15 AM 28.5°F-1.9°C 21.6°F-5.8°C 75% 3.0 mph SE4.8 kmh SE 8.0 mph12.9 kmh 29.88 in1011.9 mb 0.00 in0.0 mm 0.00 in0.0 mm 0.00 in0.0 mm
04:20 AM 28.5°F-1.9°C 21.6°F-5.8°C 75% 4.0 mph SE6.4 kmh SE 7.0 mph11.3 kmh 29.88 in1011.9 mb 0.00 in0.0 mm 0.00 in0.0 mm 0.00 in0.0 mm
04:25 AM 28.7°F-1.8°C 21.5°F-5.8°C 74% 3.0 mph SE4.8 kmh SE 8.0 mph12.9 kmh 29.88 in1011.9 mb 0.00 in0.0 mm 0.00 in0.0 mm 0.00 in0.0 mm
04:30 AM 28.7°F-1.8°C 21.5°F-5.8°C 74% Calm Calm 8.0 mph12.9 kmh 29.88 in1011.9 mb 0.00 in0.0 mm 0.00 in0.0 mm 0.00 in0.0 mm
04:35 AM 28.8°F-1.8°C 21.6°F-5.8°C 74% 1.0 mph E1.6 kmh E 5.0 mph8.0 kmh 29.88 in1011.9 mb 0.00 in0.0 mm 0.00 in0.0 mm 0.00 in0.0 mm
04:40 AM 28.8°F-1.8°C 21.6°F-5.8°C 74% Calm Calm 5.0 mph8.0 kmh 29.88 in1011.9 mb 0.00 in0.0 mm 0.00 in0.0 mm 0.00 in0.0 mm
04:45 AM 28.8°F-1.8°C 21.6°F-5.8°C 74% 1.0 mph SE1.6 kmh SE 5.0 mph8.0 kmh 29.88 in1011.9 mb 0.00 in0.0 mm 0.00 in0.0 mm 0.00 in0.0 mm
04:50 AM 28.9°F-1.7°C 21.7°F-5.7°C 74% 2.0 mph SE3.2 kmh SE 5.0 mph8.0 kmh 29.88 in1011.9 mb 0.00 in0.0 mm 0.00 in0.0 mm 0.00 in0.0 mm
04:55 AM 29.0°F-1.7°C 21.8°F-5.7°C 74% 1.0 mph ESE1.6 kmh ESE 5.0 mph8.0 kmh 29.88 in1011.9 mb 0.00 in0.0 mm 0.00 in0.0 mm 0.00 in0.0 mm
05:00 AM 29.1°F-1.6°C 21.5°F-5.8°C 73% 1.0 mph ESE1.6 kmh ESE 8.0 mph12.9 kmh 29.87 in1011.5 mb 0.00 in0.0 mm 0.00 in0.0 mm 0.00 in0.0 mm
05:05 AM 29.1°F-1.6°C 21.5°F-5.8°C 73% 1.0 mph SE1.6 kmh SE 4.0 mph6.4 kmh 29.87 in1011.5 mb 0.00 in0.0 mm 0.00 in0.0 mm 0.00 in0.0 mm
05:10 AM 29.2°F-1.6°C 21.6°F-5.8°C 73% 2.0 mph S3.2 kmh S 9.0 mph14.5 kmh 29.87 in1011.5 mb 0.00 in0.0 mm 0.00 in0.0 mm 0.00 in0.0 mm
05:15 AM 29.3°F-1.5°C 22.1°F-5.5°C 74% 5.0 mph ESE8.0 kmh ESE 9.0 mph14.5 kmh 29.87 in1011.5 mb 0.00 in0.0 mm 0.00 in0.0 mm 0.00 in0.0 mm
05:20 AM 29.3°F-1.5°C 22.1°F-5.5°C 74% 3.0 mph S4.8 kmh S 9.0 mph14.5 kmh 29.87 in1011.5 mb 0.00 in0.0 mm 0.00 in0.0 mm 0.00 in0.0 mm
05:25 AM 29.3°F-1.5°C 22.4°F-5.3°C 75% 5.0 mph ESE8.0 kmh ESE 11.0 mph17.7 kmh 29.87 in1011.5 mb 0.00 in0.0 mm 0.00 in0.0 mm 0.00 in0.0 mm
05:30 AM 29.1°F-1.6°C 21.9°F-5.6°C 74% 9.0 mph SE14.5 kmh SE 12.0 mph19.3 kmh 29.87 in1011.5 mb 0.00 in0.0 mm 0.00 in0.0 mm 0.00 in0.0 mm
05:35 AM 28.9°F-1.7°C 21.7°F-5.7°C 74% 4.0 mph SE6.4 kmh SE 12.0 mph19.3 kmh 29.87 in1011.5 mb 0.00 in0.0 mm 0.00 in0.0 mm 0.00 in0.0 mm
05:40 AM 28.8°F-1.8°C 21.6°F-5.8°C 74% 7.0 mph SE11.3 kmh SE 12.0 mph19.3 kmh 29.87 in1011.5 mb 0.00 in0.0 mm 0.00 in0.0 mm 0.00 in0.0 mm
05:45 AM 28.8°F-1.8°C 21.6°F-5.8°C 74% 4.0 mph ESE6.4 kmh ESE 12.0 mph19.3 kmh 29.87 in1011.5 mb 0.00 in0.0 mm 0.00 in0.0 mm 0.00 in0.0 mm
05:50 AM 28.7°F-1.8°C 21.8°F-5.7°C 75% 5.0 mph SE8.0 kmh SE 11.0 mph17.7 kmh 29.87 in1011.5 mb 0.00 in0.0 mm 0.00 in0.0 mm 0.00 in0.0 mm
05:55 AM 28.7°F-1.8°C 21.5°F-5.8°C 74% 2.0 mph SE3.2 kmh SE 12.0 mph19.3 kmh 29.87 in1011.5 mb 0.00 in0.0 mm 0.00 in0.0 mm 0.00 in0.0 mm
06:00 AM 28.7°F-1.8°C 21.5°F-5.8°C 74% 4.0 mph SE6.4 kmh SE 12.0 mph19.3 kmh 29.87 in1011.5 mb 0.00 in0.0 mm 0.00 in0.0 mm 0.00 in0.0 mm
06:05 AM 28.7°F-1.8°C 21.5°F-5.8°C 74% 6.0 mph E9.7 kmh E 10.0 mph16.1 kmh 29.87 in1011.5 mb 0.00 in0.0 mm 0.00 in0.0 mm 0.00 in0.0 mm
06:10 AM 28.6°F-1.9°C 21.4°F-5.9°C 74% 7.0 mph ESE11.3 kmh ESE 13.0 mph20.9 kmh 29.87 in1011.5 mb 0.00 in0.0 mm 0.00 in0.0 mm 0.00 in0.0 mm
06:15 AM 28.6°F-1.9°C 21.4°F-5.9°C 74% 5.0 mph ESE8.0 kmh ESE 13.0 mph20.9 kmh 29.87 in1011.5 mb 0.00 in0.0 mm 0.00 in0.0 mm 0.00 in0.0 mm
06:20 AM 28.5°F-1.9°C 21.3°F-5.9°C 74% 7.0 mph ESE11.3 kmh ESE 11.0 mph17.7 kmh 29.87 in1011.5 mb 0.00 in0.0 mm 0.00 in0.0 mm 0.00 in0.0 mm
06:25 AM 28.5°F-1.9°C 21.3°F-5.9°C 74% 6.0 mph SE9.7 kmh SE 14.0 mph22.5 kmh 29.87 in1011.5 mb 0.00 in0.0 mm 0.00 in0.0 mm 0.00 in0.0 mm
06:30 AM 28.4°F-2.0°C 21.2°F-6.0°C 74% 7.0 mph ESE11.3 kmh ESE 14.0 mph22.5 kmh 29.87 in1011.5 mb 0.00 in0.0 mm 0.00 in0.0 mm 0.00 in0.0 mm
06:35 AM 28.3°F-2.1°C 21.1°F-6.1°C 74% 4.0 mph SE6.4 kmh SE 10.0 mph16.1 kmh 29.87 in1011.5 mb 0.00 in0.0 mm 0.00 in0.0 mm 0.00 in0.0 mm
06:40 AM 28.3°F-2.1°C 21.1°F-6.1°C 74% 7.0 mph SE11.3 kmh SE 12.0 mph19.3 kmh 29.87 in1011.5 mb 0.00 in0.0 mm 0.00 in0.0 mm 0.00 in0.0 mm
06:45 AM 28.3°F-2.1°C 20.8°F-6.2°C 73% 5.0 mph SE8.0 kmh SE 14.0 mph22.5 kmh 29.87 in1011.5 mb 0.00 in0.0 mm 0.00 in0.0 mm 0.00 in0.0 mm
06:50 AM 28.3°F-2.1°C 20.4°F-6.4°C 72% 5.0 mph ESE8.0 kmh ESE 11.0 mph17.7 kmh 29.87 in1011.5 mb 0.00 in0.0 mm 0.00 in0.0 mm 0.00 in0.0 mm
06:55 AM 28.3°F-2.1°C 20.4°F-6.4°C 72% 5.0 mph SSE8.0 kmh SSE 11.0 mph17.7 kmh 29.87 in1011.5 mb 0.00 in0.0 mm 0.00 in0.0 mm 0.00 in0.0 mm
07:00 AM 28.4°F-2.0°C 20.5°F-6.4°C 72% 6.0 mph SE9.7 kmh SE 12.0 mph19.3 kmh 29.87 in1011.5 mb 0.00 in0.0 mm 0.00 in0.0 mm 0.00 in0.0 mm
07:05 AM 28.4°F-2.0°C 20.5°F-6.4°C 72% 10.0 mph ESE16.1 kmh ESE 13.0 mph20.9 kmh 29.87 in1011.5 mb 0.00 in0.0 mm 0.00 in0.0 mm 0.00 in0.0 mm
07:10 AM 28.5°F-1.9°C 20.6°F-6.3°C 72% 8.0 mph SE12.9 kmh SE 13.0 mph20.9 kmh 29.87 in1011.5 mb 0.00 in0.0 mm 0.00 in0.0 mm 0.00 in0.0 mm
07:15 AM 28.4°F-2.0°C 20.9°F-6.2°C 73% 4.0 mph E6.4 kmh E 13.0 mph20.9 kmh 29.87 in1011.5 mb 0.00 in0.0 mm 0.00 in0.0 mm 0.00 in0.0 mm
07:20 AM 28.4°F-2.0°C 21.5°F-5.8°C 75% 6.0 mph E9.7 kmh E 10.0 mph16.1 kmh 29.86 in1011.2 mb 0.00 in0.0 mm 0.00 in0.0 mm 0.00 in0.0 mm
07:25 AM 28.2°F-2.1°C 21.6°F-5.8°C 76% 14.0 mph SE22.5 kmh SE 16.0 mph25.7 kmh 29.87 in1011.5 mb 0.00 in0.0 mm 0.00 in0.0 mm 0.00 in0.0 mm
07:30 AM 28.2°F-2.1°C 21.9°F-5.6°C 77% 7.0 mph ESE11.3 kmh ESE 17.0 mph27.4 kmh 29.86 in1011.2 mb 0.00 in0.0 mm 0.00 in0.0 mm 0.00 in0.0 mm
07:35 AM 28.2°F-2.1°C 22.2°F-5.4°C 78% 9.0 mph SE14.5 kmh SE 16.0 mph25.7 kmh 29.86 in1011.2 mb 0.00 in0.0 mm 0.00 in0.0 mm 0.00 in0.0 mm
07:40 AM 28.1°F-2.2°C 22.4°F-5.3°C 79% 10.0 mph E16.1 kmh E 16.0 mph25.7 kmh 29.86 in1011.2 mb 0.00 in0.0 mm 0.00 in0.0 mm 0.00 in0.0 mm
07:45 AM 28.2°F-2.1°C 22.8°F-5.1°C 80% 4.0 mph SE6.4 kmh SE 16.0 mph25.7 kmh 29.87 in1011.5 mb 0.00 in0.0 mm 0.00 in0.0 mm 0.00 in0.0 mm
07:50 AM 28.2°F-2.1°C 22.8°F-5.1°C 80% 6.0 mph ESE9.7 kmh ESE 13.0 mph20.9 kmh 29.87 in1011.5 mb 0.00 in0.0 mm 0.00 in0.0 mm 0.00 in0.0 mm
07:55 AM 28.2°F-2.1°C 23.1°F-4.9°C 81% 5.0 mph SE8.0 kmh SE 15.0 mph24.1 kmh 29.87 in1011.5 mb 0.00 in0.0 mm 0.00 in0.0 mm 0.00 in0.0 mm
08:00 AM 28.2°F-2.1°C 23.1°F-4.9°C 81% 5.0 mph ESE8.0 kmh ESE 15.0 mph24.1 kmh 29.88 in1011.9 mb 0.00 in0.0 mm 0.00 in0.0 mm 0.00 in0.0 mm
08:05 AM 28.1°F-2.2°C 23.0°F-5.0°C 81% 6.0 mph SE9.7 kmh SE 12.0 mph19.3 kmh 29.88 in1011.9 mb 0.00 in0.0 mm 0.00 in0.0 mm 0.00 in0.0 mm
08:10 AM 28.0°F-2.2°C 22.9°F-5.1°C 81% 10.0 mph SE16.1 kmh SE 13.0 mph20.9 kmh 29.88 in1011.9 mb 0.00 in0.0 mm 0.00 in0.0 mm 0.00 in0.0 mm
08:15 AM 27.9°F-2.3°C 23.1°F-4.9°C 82% 4.0 mph SE6.4 kmh SE 13.0 mph20.9 kmh 29.87 in1011.5 mb 0.00 in0.0 mm 0.00 in0.0 mm 0.00 in0.0 mm
08:20 AM 27.8°F-2.3°C 23.0°F-5.0°C 82% 9.0 mph SE14.5 kmh SE 16.0 mph25.7 kmh 29.87 in1011.5 mb 0.00 in0.0 mm 0.00 in0.0 mm 0.00 in0.0 mm
08:25 AM 27.8°F-2.3°C 23.0°F-5.0°C 82% 9.0 mph SE14.5 kmh SE 18.0 mph29.0 kmh 29.87 in1011.5 mb 0.00 in0.0 mm 0.00 in0.0 mm 0.00 in0.0 mm
08:30 AM 27.8°F-2.3°C 23.0°F-5.0°C 82% 5.0 mph SE8.0 kmh SE 18.0 mph29.0 kmh 29.87 in1011.5 mb 0.00 in0.0 mm 0.00 in0.0 mm 0.00 in0.0 mm
08:35 AM 27.8°F-2.3°C 23.0°F-5.0°C 82% 5.0 mph E8.0 kmh E 16.0 mph25.7 kmh 29.88 in1011.9 mb 0.00 in0.0 mm 0.00 in0.0 mm 0.00 in0.0 mm
08:40 AM 27.8°F-2.3°C 23.0°F-5.0°C 82% 6.0 mph SSE9.7 kmh SSE 18.0 mph29.0 kmh 29.88 in1011.9 mb 0.00 in0.0 mm 0.00 in0.0 mm 0.00 in0.0 mm
08:45 AM 27.8°F-2.3°C 23.0°F-5.0°C 82% 9.0 mph ESE14.5 kmh ESE 18.0 mph29.0 kmh 29.87 in1011.5 mb 0.00 in0.0 mm 0.00 in0.0 mm 0.00 in0.0 mm
08:50 AM 27.8°F-2.3°C 23.0°F-5.0°C 82% 7.0 mph ESE11.3 kmh ESE 14.0 mph22.5 kmh 29.87 in1011.5 mb 0.00 in0.0 mm 0.00 in0.0 mm 0.00 in0.0 mm
08:55 AM 27.8°F-2.3°C 23.0°F-5.0°C 82% 14.0 mph SSE22.5 kmh SSE 14.0 mph22.5 kmh 29.88 in1011.9 mb 0.00 in0.0 mm 0.00 in0.0 mm 0.00 in0.0 mm
09:00 AM 27.8°F-2.3°C 23.0°F-5.0°C 82% 11.0 mph E17.7 kmh E 15.0 mph24.1 kmh 29.88 in1011.9 mb 0.00 in0.0 mm 0.00 in0.0 mm 0.00 in0.0 mm
09:05 AM 27.9°F-2.3°C 23.1°F-4.9°C 82% 8.0 mph SSE12.9 kmh SSE 17.0 mph27.4 kmh 29.88 in1011.9 mb 0.00 in0.0 mm 0.00 in0.0 mm 0.00 in0.0 mm
09:10 AM 27.9°F-2.3°C 23.1°F-4.9°C 82% 4.0 mph SE6.4 kmh SE 17.0 mph27.4 kmh 29.89 in1012.2 mb 0.00 in0.0 mm 0.00 in0.0 mm 0.00 in0.0 mm
09:15 AM 27.8°F-2.3°C 22.7°F-5.2°C 81% 4.0 mph SE6.4 kmh SE 17.0 mph27.4 kmh 29.89 in1012.2 mb 0.00 in0.0 mm 0.00 in0.0 mm 0.00 in0.0 mm
09:20 AM 27.7°F-2.4°C 22.9°F-5.1°C 82% 9.0 mph ESE14.5 kmh ESE 13.0 mph20.9 kmh 29.89 in1012.2 mb 0.00 in0.0 mm 0.00 in0.0 mm 0.00 in0.0 mm
09:25 AM 27.7°F-2.4°C 22.9°F-5.1°C 82% 7.0 mph SE11.3 kmh SE 15.0 mph24.1 kmh 29.89 in1012.2 mb 0.00 in0.0 mm 0.00 in0.0 mm 0.00 in0.0 mm
09:30 AM 27.7°F-2.4°C 22.9°F-5.1°C 82% 6.0 mph SE9.7 kmh SE 15.0 mph24.1 kmh 29.89 in1012.2 mb 0.00 in0.0 mm 0.00 in0.0 mm 0.00 in0.0 mm
09:35 AM 27.8°F-2.3°C 23.0°F-5.0°C 82% 9.0 mph SE14.5 kmh SE 11.0 mph17.7 kmh 29.89 in1012.2 mb 0.00 in0.0 mm 0.00 in0.0 mm 0.00 in0.0 mm
09:40 AM 27.9°F-2.3°C 23.1°F-4.9°C 82% 5.0 mph ESE8.0 kmh ESE 13.0 mph20.9 kmh 29.90 in1012.5 mb 0.00 in0.0 mm 0.00 in0.0 mm 0.00 in0.0 mm
09:45 AM 28.0°F-2.2°C 23.2°F-4.9°C 82% 3.0 mph SE4.8 kmh SE 13.0 mph20.9 kmh 29.90 in1012.5 mb 0.00 in0.0 mm 0.00 in0.0 mm 0.00 in0.0 mm
09:50 AM 28.1°F-2.2°C 23.3°F-4.8°C 82% 6.0 mph ESE9.7 kmh ESE 11.0 mph17.7 kmh 29.90 in1012.5 mb 0.00 in0.0 mm 0.00 in0.0 mm 0.00 in0.0 mm
09:55 AM 28.2°F-2.1°C 23.4°F-4.8°C 82% 7.0 mph SE11.3 kmh SE 14.0 mph22.5 kmh 29.90 in1012.5 mb 0.00 in0.0 mm 0.00 in0.0 mm 0.00 in0.0 mm
10:00 AM 28.5°F-1.9°C 23.4°F-4.8°C 81% 9.0 mph ESE14.5 kmh ESE 15.0 mph24.1 kmh 29.90 in1012.5 mb 0.00 in0.0 mm 0.00 in0.0 mm 0.00 in0.0 mm
10:05 AM 28.7°F-1.8°C 23.3°F-4.8°C 80% 8.0 mph E12.9 kmh E 14.0 mph22.5 kmh 29.90 in1012.5 mb 0.00 in0.0 mm 0.00 in0.0 mm 0.00 in0.0 mm
10:10 AM 28.9°F-1.7°C 23.5°F-4.7°C 80% 8.0 mph ESE12.9 kmh ESE 14.0 mph22.5 kmh 29.90 in1012.5 mb 0.00 in0.0 mm 0.00 in0.0 mm 0.00 in0.0 mm
10:15 AM 29.1°F-1.6°C 23.4°F-4.8°C 79% 3.0 mph SE4.8 kmh SE 14.0 mph22.5 kmh 29.91 in1012.9 mb 0.00 in0.0 mm 0.00 in0.0 mm 0.00 in0.0 mm
10:20 AM 29.3°F-1.5°C 23.6°F-4.7°C 79% 9.0 mph SE14.5 kmh SE 15.0 mph24.1 kmh 29.91 in1012.9 mb 0.00 in0.0 mm 0.00 in0.0 mm 0.00 in0.0 mm
10:25 AM 29.6°F-1.3°C 23.6°F-4.7°C 78% 11.0 mph E17.7 kmh E 15.0 mph24.1 kmh 29.91 in1012.9 mb 0.00 in0.0 mm 0.00 in0.0 mm 0.00 in0.0 mm
10:30 AM 29.7°F-1.3°C 23.7°F-4.6°C 78% 6.0 mph SE9.7 kmh SE 15.0 mph24.1 kmh 29.91 in1012.9 mb 0.00 in0.0 mm 0.00 in0.0 mm 0.00 in0.0 mm
10:35 AM 29.8°F-1.2°C 23.8°F-4.6°C 78% 6.0 mph ESE9.7 kmh ESE 13.0 mph20.9 kmh 29.92 in1013.2 mb 0.00 in0.0 mm 0.00 in0.0 mm 0.00 in0.0 mm
10:40 AM 29.9°F-1.2°C 23.9°F-4.5°C 78% 9.0 mph E14.5 kmh E 13.0 mph20.9 kmh 29.92 in1013.2 mb 0.00 in0.0 mm 0.00 in0.0 mm 0.00 in0.0 mm
10:45 AM 29.9°F-1.2°C 23.9°F-4.5°C 78% 3.0 mph E4.8 kmh E 13.0 mph20.9 kmh 29.92 in1013.2 mb 0.00 in0.0 mm 0.00 in0.0 mm 0.00 in0.0 mm
10:50 AM 30.0°F-1.1°C 24.0°F-4.4°C 78% 8.0 mph SE12.9 kmh SE 14.0 mph22.5 kmh 29.93 in1013.5 mb 0.00 in0.0 mm 0.00 in0.0 mm 0.00 in0.0 mm
10:55 AM 30.2°F-1.0°C 24.2°F-4.3°C 78% 9.0 mph SE14.5 kmh SE 14.0 mph22.5 kmh 29.93 in1013.5 mb 0.00 in0.0 mm 0.00 in0.0 mm 0.00 in0.0 mm
11:00 AM 30.4°F-0.9°C 24.4°F-4.2°C 78% 9.0 mph ESE14.5 kmh ESE 15.0 mph24.1 kmh 29.93 in1013.5 mb 0.00 in0.0 mm 0.00 in0.0 mm 0.00 in0.0 mm
11:05 AM 30.6°F-0.8°C 24.3°F-4.3°C 77% 4.0 mph SE6.4 kmh SE 10.0 mph16.1 kmh 29.93 in1013.5 mb 0.00 in0.0 mm 0.00 in0.0 mm 0.00 in0.0 mm
11:10 AM 31.1°F-0.5°C 24.4°F-4.2°C 76% 6.0 mph E9.7 kmh E 14.0 mph22.5 kmh 29.93 in1013.5 mb 0.00 in0.0 mm 0.00 in0.0 mm 0.00 in0.0 mm
11:15 AM 31.3°F-0.4°C 24.6°F-4.1°C 76% 3.0 mph SSE4.8 kmh SSE 14.0 mph22.5 kmh 29.94 in1013.9 mb 0.00 in0.0 mm 0.00 in0.0 mm 0.00 in0.0 mm
11:20 AM 31.5°F-0.3°C 24.8°F-4.0°C 76% Calm Calm 11.0 mph17.7 kmh 29.94 in1013.9 mb 0.00 in0.0 mm 0.00 in0.0 mm 0.00 in0.0 mm
11:25 AM 31.6°F-0.2°C 24.9°F-3.9°C 76% 8.0 mph ESE12.9 kmh ESE 12.0 mph19.3 kmh 29.94 in1013.9 mb 0.00 in0.0 mm 0.00 in0.0 mm 0.00 in0.0 mm
11:30 AM 31.7°F-0.2°C 24.7°F-4.1°C 75% 5.0 mph ESE8.0 kmh ESE 14.0 mph22.5 kmh 29.94 in1013.9 mb 0.00 in0.0 mm 0.00 in0.0 mm 0.00 in0.0 mm
11:35 AM 31.8°F-0.1°C 25.1°F-3.8°C 76% 4.0 mph E6.4 kmh E 11.0 mph17.7 kmh 29.94 in1013.9 mb 0.00 in0.0 mm 0.00 in0.0 mm 0.00 in0.0 mm
11:40 AM 31.9°F-0.1°C 25.2°F-3.8°C 76% 5.0 mph E8.0 kmh E 12.0 mph19.3 kmh 29.94 in1013.9 mb 0.00 in0.0 mm 0.00 in0.0 mm 0.00 in0.0 mm
11:45 AM 32.0°F0.0°C 25.3°F-3.7°C 76% 6.0 mph ESE9.7 kmh ESE 12.0 mph19.3 kmh 29.94 in1013.9 mb 0.00 in0.0 mm 0.00 in0.0 mm 0.00 in0.0 mm
11:50 AM 32.0°F0.0°C 25.6°F-3.6°C 77% 7.0 mph E11.3 kmh E 11.0 mph17.7 kmh 29.94 in1013.9 mb 0.00 in0.0 mm 0.00 in0.0 mm 0.00 in0.0 mm
11:55 AM 32.2°F0.1°C 25.8°F-3.4°C 77% 8.0 mph E12.9 kmh E 13.0 mph20.9 kmh 29.94 in1013.9 mb 0.00 in0.0 mm 0.00 in0.0 mm 0.00 in0.0 mm
12:00 PM 32.3°F0.2°C 25.9°F-3.4°C 77% 8.0 mph E12.9 kmh E 14.0 mph22.5 kmh 29.94 in1013.9 mb 0.00 in0.0 mm 0.00 in0.0 mm 0.00 in0.0 mm
12:05 PM 32.5°F0.3°C 25.8°F-3.4°C 76% 2.0 mph ESE3.2 kmh ESE 13.0 mph20.9 kmh 29.94 in1013.9 mb 0.00 in0.0 mm 0.00 in0.0 mm 0.00 in0.0 mm
12:10 PM 32.9°F0.5°C 26.2°F-3.2°C 76% 5.0 mph SE8.0 kmh SE 13.0 mph20.9 kmh 29.94 in1013.9 mb 0.00 in0.0 mm 0.00 in0.0 mm 0.00 in0.0 mm
12:15 PM 33.3°F0.7°C 25.9°F-3.4°C 74% 8.0 mph E12.9 kmh E 13.0 mph20.9 kmh 29.94 in1013.9 mb 0.00 in0.0 mm 0.00 in0.0 mm 0.00 in0.0 mm
12:20 PM 33.6°F0.9°C 25.9°F-3.4°C 73% 2.0 mph ESE3.2 kmh ESE 10.0 mph16.1 kmh 29.94 in1013.9 mb 0.00 in0.0 mm 0.00 in0.0 mm 0.00 in0.0 mm
12:25 PM 33.9°F1.1°C 26.2°F-3.2°C 73% 8.0 mph E12.9 kmh E 10.0 mph16.1 kmh 29.94 in1013.9 mb 0.00 in0.0 mm 0.00 in0.0 mm 0.00 in0.0 mm
12:30 PM 33.9°F1.1°C 26.2°F-3.2°C 73% 8.0 mph E12.9 kmh E 10.0 mph16.1 kmh 29.94 in1013.9 mb 0.00 in0.0 mm 0.00 in0.0 mm 0.00 in0.0 mm
12:35 PM 34.0°F1.1°C 26.3°F-3.2°C 73% 7.0 mph SE11.3 kmh SE 12.0 mph19.3 kmh 29.94 in1013.9 mb 0.00 in0.0 mm 0.00 in0.0 mm 0.00 in0.0 mm
12:40 PM 34.1°F1.2°C 26.7°F-2.9°C 74% 5.0 mph ESE8.0 kmh ESE 15.0 mph24.1 kmh 29.94 in1013.9 mb 0.00 in0.0 mm 0.00 in0.0 mm 0.00 in0.0 mm
12:45 PM 33.9°F1.1°C 26.8°F-2.9°C 75% 8.0 mph E12.9 kmh E 15.0 mph24.1 kmh 29.95 in1014.2 mb 0.00 in0.0 mm 0.00 in0.0 mm 0.00 in0.0 mm
12:50 PM 33.8°F1.0°C 26.7°F-2.9°C 75% 5.0 mph ENE8.0 kmh ENE 13.0 mph20.9 kmh 29.95 in1014.2 mb 0.00 in0.0 mm 0.00 in0.0 mm 0.00 in0.0 mm
12:55 PM 33.9°F1.1°C 26.8°F-2.9°C 75% 3.0 mph NE4.8 kmh NE 13.0 mph20.9 kmh 29.95 in1014.2 mb 0.00 in0.0 mm 0.00 in0.0 mm 0.00 in0.0 mm
01:00 PM 34.0°F1.1°C 26.9°F-2.8°C 75% 2.0 mph ENE3.2 kmh ENE 13.0 mph20.9 kmh 29.95 in1014.2 mb 0.00 in0.0 mm 0.00 in0.0 mm 0.00 in0.0 mm
01:05 PM 34.2°F1.2°C 27.1°F-2.7°C 75% 5.0 mph E8.0 kmh E 10.0 mph16.1 kmh 29.95 in1014.2 mb 0.00 in0.0 mm 0.00 in0.0 mm 0.00 in0.0 mm
01:10 PM 34.4°F1.3°C 27.0°F-2.8°C 74% 1.0 mph E1.6 kmh E 10.0 mph16.1 kmh 29.96 in1014.6 mb 0.00 in0.0 mm 0.00 in0.0 mm 0.00 in0.0 mm
01:15 PM 34.6°F1.4°C 26.9°F-2.8°C 73% 1.0 mph SSW1.6 kmh SSW 10.0 mph16.1 kmh 29.96 in1014.6 mb 0.00 in0.0 mm 0.00 in0.0 mm 0.00 in0.0 mm
01:20 PM 34.8°F1.6°C 27.0°F-2.8°C 73% 2.0 mph E3.2 kmh E 7.0 mph11.3 kmh 29.96 in1014.6 mb 0.00 in0.0 mm 0.00 in0.0 mm 0.00 in0.0 mm
01:25 PM 34.9°F1.6°C 27.1°F-2.7°C 73% 1.0 mph S1.6 kmh S 7.0 mph11.3 kmh 29.96 in1014.6 mb 0.00 in0.0 mm 0.00 in0.0 mm 0.00 in0.0 mm
01:30 PM 35.0°F1.7°C 27.2°F-2.7°C 73% Calm Calm 7.0 mph11.3 kmh 29.96 in1014.6 mb 0.00 in0.0 mm 0.00 in0.0 mm 0.00 in0.0 mm
01:35 PM 35.2°F1.8°C 27.1°F-2.7°C 72% 1.0 mph NW1.6 kmh NW 2.0 mph3.2 kmh 29.96 in1014.6 mb 0.00 in0.0 mm 0.00 in0.0 mm 0.00 in0.0 mm
01:40 PM 35.3°F1.8°C 27.2°F-2.7°C 72% 3.0 mph E4.8 kmh E 5.0 mph8.0 kmh 29.96 in1014.6 mb 0.00 in0.0 mm 0.00 in0.0 mm 0.00 in0.0 mm
01:45 PM 35.4°F1.9°C 27.3°F-2.6°C 72% 8.0 mph E12.9 kmh E 10.0 mph16.1 kmh 29.96 in1014.6 mb 0.00 in0.0 mm 0.00 in0.0 mm 0.00 in0.0 mm
01:50 PM 35.6°F2.0°C 27.5°F-2.5°C 72% 4.0 mph E6.4 kmh E 7.0 mph11.3 kmh 29.96 in1014.6 mb 0.00 in0.0 mm 0.00 in0.0 mm 0.00 in0.0 mm
01:55 PM 35.9°F2.2°C 27.4°F-2.6°C 71% 2.0 mph E3.2 kmh E 9.0 mph14.5 kmh 29.96 in1014.6 mb 0.00 in0.0 mm 0.00 in0.0 mm 0.00 in0.0 mm
02:00 PM 36.1°F2.3°C 27.3°F-2.6°C 70% 10.0 mph E16.1 kmh E 14.0 mph22.5 kmh 29.96 in1014.6 mb 0.00 in0.0 mm 0.00 in0.0 mm 0.00 in0.0 mm
02:05 PM 36.0°F2.2°C 27.2°F-2.7°C 70% 12.0 mph E19.3 kmh E 13.0 mph20.9 kmh 29.96 in1014.6 mb 0.00 in0.0 mm 0.00 in0.0 mm 0.00 in0.0 mm
02:10 PM 36.0°F2.2°C 27.2°F-2.7°C 70% 8.0 mph E12.9 kmh E 13.0 mph20.9 kmh 29.96 in1014.6 mb 0.00 in0.0 mm 0.00 in0.0 mm 0.00 in0.0 mm
02:15 PM 35.9°F2.2°C 27.4°F-2.6°C 71% 7.0 mph ENE11.3 kmh ENE 13.0 mph20.9 kmh 29.96 in1014.6 mb 0.00 in0.0 mm 0.00 in0.0 mm 0.00 in0.0 mm
02:20 PM 35.9°F2.2°C 27.8°F-2.3°C 72% 1.0 mph ENE1.6 kmh ENE 7.0 mph11.3 kmh 29.96 in1014.6 mb 0.00 in0.0 mm 0.00 in0.0 mm 0.00 in0.0 mm
02:25 PM 36.1°F2.3°C 28.0°F-2.2°C 72% 2.0 mph ESE3.2 kmh ESE 10.0 mph16.1 kmh 29.96 in1014.6 mb 0.00 in0.0 mm 0.00 in0.0 mm 0.00 in0.0 mm
02:30 PM 36.3°F2.4°C 28.2°F-2.1°C 72% 7.0 mph ENE11.3 kmh ENE 10.0 mph16.1 kmh 29.96 in1014.6 mb 0.00 in0.0 mm 0.00 in0.0 mm 0.00 in0.0 mm
02:35 PM 36.5°F2.5°C 28.0°F-2.2°C 71% 7.0 mph E11.3 kmh E 9.0 mph14.5 kmh 29.96 in1014.6 mb 0.00 in0.0 mm 0.00 in0.0 mm 0.00 in0.0 mm
02:40 PM 36.5°F2.5°C 28.0°F-2.2°C 71% 5.0 mph ENE8.0 kmh ENE 12.0 mph19.3 kmh 29.96 in1014.6 mb 0.00 in0.0 mm 0.00 in0.0 mm 0.00 in0.0 mm
02:45 PM 36.4°F2.4°C 27.9°F-2.3°C 71% 2.0 mph ENE3.2 kmh ENE 12.0 mph19.3 kmh 29.96 in1014.6 mb 0.00 in0.0 mm 0.00 in0.0 mm 0.00 in0.0 mm
02:50 PM 36.4°F2.4°C 27.9°F-2.3°C 71% 3.0 mph E4.8 kmh E 7.0 mph11.3 kmh 29.96 in1014.6 mb 0.00 in0.0 mm 0.00 in0.0 mm 0.00 in0.0 mm
02:55 PM 36.6°F2.6°C 28.1°F-2.2°C 71% 5.0 mph N8.0 kmh N 7.0 mph11.3 kmh 29.96 in1014.6 mb 0.00 in0.0 mm 0.00 in0.0 mm 0.00 in0.0 mm
03:00 PM 36.6°F2.6°C 28.1°F-2.2°C 71% Calm Calm 7.0 mph11.3 kmh 29.96 in1014.6 mb 0.00 in0.0 mm 0.00 in0.0 mm 0.00 in0.0 mm
03:05 PM 36.6°F2.6°C 28.4°F-2.0°C 72% 3.0 mph NE4.8 kmh NE 6.0 mph9.7 kmh 29.96 in1014.6 mb 0.00 in0.0 mm 0.00 in0.0 mm 0.00 in0.0 mm
03:10 PM 36.7°F2.6°C 28.5°F-1.9°C 72% Calm Calm 6.0 mph9.7 kmh 29.96 in1014.6 mb 0.00 in0.0 mm 0.00 in0.0 mm 0.00 in0.0 mm
03:15 PM 36.8°F2.7°C 28.6°F-1.9°C 72% Calm Calm 6.0 mph9.7 kmh 29.96 in1014.6 mb 0.00 in0.0 mm 0.00 in0.0 mm 0.00 in0.0 mm
03:20 PM 37.0°F2.8°C 28.8°F-1.8°C 72% 2.0 mph NE3.2 kmh NE 4.0 mph6.4 kmh 29.96 in1014.6 mb 0.00 in0.0 mm 0.00 in0.0 mm 0.00 in0.0 mm
03:25 PM 37.2°F2.9°C 29.0°F-1.7°C 72% 2.0 mph ENE3.2 kmh ENE 4.0 mph6.4 kmh 29.96 in1014.6 mb 0.00 in0.0 mm 0.00 in0.0 mm 0.00 in0.0 mm
03:30 PM 37.1°F2.8°C 28.9°F-1.7°C 72% 3.0 mph NE4.8 kmh NE 5.0 mph8.0 kmh 29.97 in1014.9 mb 0.00 in0.0 mm 0.00 in0.0 mm 0.00 in0.0 mm
03:35 PM 37.0°F2.8°C 28.8°F-1.8°C 72% Calm Calm 2.0 mph3.2 kmh 29.97 in1014.9 mb 0.00 in0.0 mm 0.00 in0.0 mm 0.00 in0.0 mm
03:40 PM 37.3°F2.9°C 28.8°F-1.8°C 71% Calm Calm 3.0 mph4.8 kmh 29.97 in1014.9 mb 0.00 in0.0 mm 0.00 in0.0 mm 0.00 in0.0 mm
03:45 PM 37.4°F3.0°C 28.9°F-1.7°C 71% 1.0 mph ENE1.6 kmh ENE 3.0 mph4.8 kmh 29.97 in1014.9 mb 0.00 in0.0 mm 0.00 in0.0 mm 0.00 in0.0 mm
03:50 PM 37.4°F3.0°C 28.5°F-1.9°C 70% 2.0 mph E3.2 kmh E 7.0 mph11.3 kmh 29.97 in1014.9 mb 0.00 in0.0 mm 0.00 in0.0 mm 0.00 in0.0 mm
03:55 PM 37.2°F2.9°C 28.7°F-1.8°C 71% 2.0 mph E3.2 kmh E 7.0 mph11.3 kmh 29.98 in1015.2 mb 0.00 in0.0 mm 0.00 in0.0 mm 0.00 in0.0 mm
04:00 PM 37.4°F3.0°C 28.5°F-1.9°C 70% 2.0 mph SE3.2 kmh SE 11.0 mph17.7 kmh 29.98 in1015.2 mb 0.00 in0.0 mm 0.00 in0.0 mm 0.00 in0.0 mm
04:05 PM 37.0°F2.8°C 28.5°F-1.9°C 71% 3.0 mph ESE4.8 kmh ESE 7.0 mph11.3 kmh 29.98 in1015.2 mb 0.00 in0.0 mm 0.00 in0.0 mm 0.00 in0.0 mm
04:10 PM 36.7°F2.6°C 28.5°F-1.9°C 72% 3.0 mph E4.8 kmh E 7.0 mph11.3 kmh 29.98 in1015.2 mb 0.00 in0.0 mm 0.00 in0.0 mm 0.00 in0.0 mm
04:15 PM 36.8°F2.7°C 28.6°F-1.9°C 72% 1.0 mph SE1.6 kmh SE 8.0 mph12.9 kmh 29.98 in1015.2 mb 0.00 in0.0 mm 0.00 in0.0 mm 0.00 in0.0 mm
04:20 PM 37.0°F2.8°C 28.5°F-1.9°C 71% 4.0 mph ESE6.4 kmh ESE 7.0 mph11.3 kmh 29.98 in1015.2 mb 0.00 in0.0 mm 0.00 in0.0 mm 0.00 in0.0 mm
04:25 PM 37.4°F3.0°C 28.2°F-2.1°C 69% 3.0 mph E4.8 kmh E 7.0 mph11.3 kmh 29.98 in1015.2 mb 0.00 in0.0 mm 0.00 in0.0 mm 0.00 in0.0 mm
04:30 PM 37.5°F3.1°C 28.6°F-1.9°C 70% 5.0 mph E8.0 kmh E 8.0 mph12.9 kmh 29.98 in1015.2 mb 0.00 in0.0 mm 0.00 in0.0 mm 0.00 in0.0 mm
04:35 PM 37.9°F3.3°C 27.9°F-2.3°C 67% 5.0 mph SE8.0 kmh SE 7.0 mph11.3 kmh 29.98 in1015.2 mb 0.00 in0.0 mm 0.00 in0.0 mm 0.00 in0.0 mm
04:40 PM 38.0°F3.3°C 28.4°F-2.0°C 68% 5.0 mph SE8.0 kmh SE 8.0 mph12.9 kmh 29.98 in1015.2 mb 0.00 in0.0 mm 0.00 in0.0 mm 0.00 in0.0 mm
04:45 PM 37.7°F3.2°C 28.8°F-1.8°C 70% 5.0 mph SE8.0 kmh SE 9.0 mph14.5 kmh 29.98 in1015.2 mb 0.00 in0.0 mm 0.00 in0.0 mm 0.00 in0.0 mm
04:50 PM 37.3°F2.9°C 28.4°F-2.0°C 70% 3.0 mph SE4.8 kmh SE 8.0 mph12.9 kmh 29.99 in1015.6 mb 0.00 in0.0 mm 0.00 in0.0 mm 0.00 in0.0 mm
04:55 PM 37.4°F3.0°C 28.5°F-1.9°C 70% 1.0 mph SE1.6 kmh SE 8.0 mph12.9 kmh 29.99 in1015.6 mb 0.00 in0.0 mm 0.00 in0.0 mm 0.00 in0.0 mm
05:00 PM 37.5°F3.1°C 28.3°F-2.1°C 69% 2.0 mph ESE3.2 kmh ESE 8.0 mph12.9 kmh 29.99 in1015.6 mb 0.00 in0.0 mm 0.00 in0.0 mm 0.00 in0.0 mm
05:05 PM 37.5°F3.1°C 28.6°F-1.9°C 70% 7.0 mph E11.3 kmh E 9.0 mph14.5 kmh 30.00 in1015.9 mb 0.00 in0.0 mm 0.00 in0.0 mm 0.00 in0.0 mm
05:10 PM 37.1°F2.8°C 28.9°F-1.7°C 72% 4.0 mph E6.4 kmh E 9.0 mph14.5 kmh 30.00 in1015.9 mb 0.00 in0.0 mm 0.00 in0.0 mm 0.00 in0.0 mm
05:15 PM 36.7°F2.6°C 29.2°F-1.6°C 74% 4.0 mph E6.4 kmh E 10.0 mph16.1 kmh 29.99 in1015.6 mb 0.00 in0.0 mm 0.00 in0.0 mm 0.00 in0.0 mm
05:20 PM 36.6°F2.6°C 29.4°F-1.4°C 75% 4.0 mph E6.4 kmh E 7.0 mph11.3 kmh 29.99 in1015.6 mb 0.00 in0.0 mm 0.00 in0.0 mm 0.00 in0.0 mm
05:25 PM 36.5°F2.5°C 29.3°F-1.5°C 75% 5.0 mph E8.0 kmh E 7.0 mph11.3 kmh 29.99 in1015.6 mb 0.00 in0.0 mm 0.00 in0.0 mm 0.00 in0.0 mm
05:30 PM 36.4°F2.4°C 29.6°F-1.3°C 76% 2.0 mph SE3.2 kmh SE 7.0 mph11.3 kmh 29.99 in1015.6 mb 0.00 in0.0 mm 0.00 in0.0 mm 0.00 in0.0 mm
05:35 PM 36.5°F2.5°C 29.3°F-1.5°C 75% 2.0 mph ESE3.2 kmh ESE 6.0 mph9.7 kmh 29.99 in1015.6 mb 0.00 in0.0 mm 0.00 in0.0 mm 0.00 in0.0 mm
05:40 PM 37.1°F2.8°C 28.9°F-1.7°C 72% 1.0 mph SE1.6 kmh SE 9.0 mph14.5 kmh 29.99 in1015.6 mb 0.00 in0.0 mm 0.00 in0.0 mm 0.00 in0.0 mm
05:45 PM 37.5°F3.1°C 28.6°F-1.9°C 70% Calm Calm 9.0 mph14.5 kmh 29.99 in1015.6 mb 0.00 in0.0 mm 0.00 in0.0 mm 0.00 in0.0 mm
05:50 PM 37.6°F3.1°C 28.7°F-1.8°C 70% 2.0 mph SE3.2 kmh SE 4.0 mph6.4 kmh 30.00 in1015.9 mb 0.00 in0.0 mm 0.00 in0.0 mm 0.00 in0.0 mm
05:55 PM 37.7°F3.2°C 28.1°F-2.2°C 68% 3.0 mph SE4.8 kmh SE 6.0 mph9.7 kmh 30.00 in1015.9 mb 0.00 in0.0 mm 0.00 in0.0 mm 0.00 in0.0 mm
06:00 PM 37.9°F3.3°C 28.3°F-2.1°C 68% 1.0 mph ESE1.6 kmh ESE 6.0 mph9.7 kmh 30.00 in1015.9 mb 0.00 in0.0 mm 0.00 in0.0 mm 0.00 in0.0 mm
06:05 PM 37.7°F3.2°C 28.5°F-1.9°C 69% 1.0 mph E1.6 kmh E 5.0 mph8.0 kmh 30.00 in1015.9 mb 0.00 in0.0 mm 0.00 in0.0 mm 0.00 in0.0 mm
06:10 PM 37.3°F2.9°C 28.8°F-1.8°C 71% 2.0 mph SE3.2 kmh SE 5.0 mph8.0 kmh 30.00 in1015.9 mb 0.00 in0.0 mm 0.00 in0.0 mm 0.00 in0.0 mm
06:15 PM 37.2°F2.9°C 29.0°F-1.7°C 72% 3.0 mph SE4.8 kmh SE 5.0 mph8.0 kmh 30.00 in1015.9 mb 0.00 in0.0 mm 0.00 in0.0 mm 0.00 in0.0 mm
06:20 PM 37.1°F2.8°C 28.9°F-1.7°C 72% 3.0 mph SE4.8 kmh SE 7.0 mph11.3 kmh 30.00 in1015.9 mb 0.00 in0.0 mm 0.00 in0.0 mm 0.00 in0.0 mm
06:25 PM 37.2°F2.9°C 28.7°F-1.8°C 71% 6.0 mph SE9.7 kmh SE 7.0 mph11.3 kmh 30.00 in1015.9 mb 0.00 in0.0 mm 0.00 in0.0 mm 0.00 in0.0 mm
06:30 PM 37.3°F2.9°C 28.8°F-1.8°C 71% 3.0 mph SE4.8 kmh SE 7.0 mph11.3 kmh 30.00 in1015.9 mb 0.00 in0.0 mm 0.00 in0.0 mm 0.00 in0.0 mm
06:35 PM 37.2°F2.9°C 28.7°F-1.8°C 71% 5.0 mph ESE8.0 kmh ESE 5.0 mph8.0 kmh 30.00 in1015.9 mb 0.00 in0.0 mm 0.00 in0.0 mm 0.00 in0.0 mm
06:40 PM 37.1°F2.8°C 28.9°F-1.7°C 72% 2.0 mph E3.2 kmh E 9.0 mph14.5 kmh 30.00 in1015.9 mb 0.00 in0.0 mm 0.00 in0.0 mm 0.00 in0.0 mm
06:45 PM 36.7°F2.6°C 29.2°F-1.6°C 74% 7.0 mph E11.3 kmh E 11.0 mph17.7 kmh 30.00 in1015.9 mb 0.00 in0.0 mm 0.00 in0.0 mm 0.00 in0.0 mm
06:50 PM 36.3°F2.4°C 29.5°F-1.4°C 76% 7.0 mph E11.3 kmh E 13.0 mph20.9 kmh 30.00 in1015.9 mb 0.00 in0.0 mm 0.00 in0.0 mm 0.00 in0.0 mm
06:55 PM 35.8°F2.1°C 29.6°F-1.3°C 78% 4.0 mph E6.4 kmh E 13.0 mph20.9 kmh 30.00 in1015.9 mb 0.00 in0.0 mm 0.00 in0.0 mm 0.00 in0.0 mm
07:05 PM 35.6°F2.0°C 29.7°F-1.3°C 79% 5.0 mph E8.0 kmh E 8.0 mph12.9 kmh 30.00 in1015.9 mb 0.00 in0.0 mm 0.00 in0.0 mm 0.00 in0.0 mm
07:10 PM 35.4°F1.9°C 29.6°F-1.3°C 79% 5.0 mph E8.0 kmh E 9.0 mph14.5 kmh 30.00 in1015.9 mb 0.00 in0.0 mm 0.00 in0.0 mm 0.00 in0.0 mm
07:15 PM 35.3°F1.8°C 29.5°F-1.4°C 79% 7.0 mph E11.3 kmh E 11.0 mph17.7 kmh 30.00 in1015.9 mb 0.00 in0.0 mm 0.00 in0.0 mm 0.00 in0.0 mm
07:20 PM 35.2°F1.8°C 29.4°F-1.4°C 79% 4.0 mph E6.4 kmh E 11.0 mph17.7 kmh 30.00 in1015.9 mb 0.00 in0.0 mm 0.00 in0.0 mm 0.00 in0.0 mm
07:25 PM 35.1°F1.7°C 29.3°F-1.5°C 79% 10.0 mph SE16.1 kmh SE 11.0 mph17.7 kmh 30.00 in1015.9 mb 0.00 in0.0 mm 0.00 in0.0 mm 0.00 in0.0 mm
07:30 PM 35.1°F1.7°C 29.3°F-1.5°C 79% 9.0 mph E14.5 kmh E 11.0 mph17.7 kmh 30.00 in1015.9 mb 0.00 in0.0 mm 0.00 in0.0 mm 0.00 in0.0 mm
07:35 PM 35.1°F1.7°C 29.3°F-1.5°C 79% 7.0 mph E11.3 kmh E 14.0 mph22.5 kmh 30.00 in1015.9 mb 0.00 in0.0 mm 0.00 in0.0 mm 0.00 in0.0 mm
07:40 PM 35.0°F1.7°C 29.2°F-1.6°C 79% 3.0 mph E4.8 kmh E 14.0 mph22.5 kmh 30.01 in1016.3 mb 0.00 in0.0 mm 0.00 in0.0 mm 0.00 in0.0 mm
07:45 PM 35.1°F1.7°C 29.3°F-1.5°C 79% 8.0 mph E12.9 kmh E 14.0 mph22.5 kmh 30.01 in1016.3 mb 0.00 in0.0 mm 0.00 in0.0 mm 0.00 in0.0 mm
07:50 PM 35.2°F1.8°C 29.0°F-1.7°C 78% 2.0 mph SE3.2 kmh SE 10.0 mph16.1 kmh 30.01 in1016.3 mb 0.00 in0.0 mm 0.00 in0.0 mm 0.00 in0.0 mm
07:55 PM 35.3°F1.8°C 29.1°F-1.6°C 78% 6.0 mph ESE9.7 kmh ESE 10.0 mph16.1 kmh 30.01 in1016.3 mb 0.00 in0.0 mm 0.00 in0.0 mm 0.00 in0.0 mm
08:00 PM 35.4°F1.9°C 28.9°F-1.7°C 77% 2.0 mph SE3.2 kmh SE 10.0 mph16.1 kmh 30.01 in1016.3 mb 0.00 in0.0 mm 0.00 in0.0 mm 0.00 in0.0 mm
08:05 PM 35.3°F1.8°C 28.8°F-1.8°C 77% 1.0 mph SE1.6 kmh SE 7.0 mph11.3 kmh 30.02 in1016.6 mb 0.00 in0.0 mm 0.00 in0.0 mm 0.00 in0.0 mm
08:10 PM 35.3°F1.8°C 28.8°F-1.8°C 77% 4.0 mph SE6.4 kmh SE 7.0 mph11.3 kmh 30.02 in1016.6 mb 0.00 in0.0 mm 0.00 in0.0 mm 0.00 in0.0 mm
08:15 PM 35.3°F1.8°C 28.8°F-1.8°C 77% 3.0 mph SSE4.8 kmh SSE 8.0 mph12.9 kmh 30.02 in1016.6 mb 0.00 in0.0 mm 0.00 in0.0 mm 0.00 in0.0 mm
08:20 PM 35.4°F1.9°C 28.6°F-1.9°C 76% 3.0 mph SE4.8 kmh SE 10.0 mph16.1 kmh 30.02 in1016.6 mb 0.00 in0.0 mm 0.00 in0.0 mm 0.00 in0.0 mm
08:25 PM 35.5°F1.9°C 28.7°F-1.8°C 76% 4.0 mph SE6.4 kmh SE 10.0 mph16.1 kmh 30.03 in1016.9 mb 0.00 in0.0 mm 0.00 in0.0 mm 0.00 in0.0 mm
08:30 PM 35.6°F2.0°C 28.8°F-1.8°C 76% 7.0 mph SE11.3 kmh SE 10.0 mph16.1 kmh 30.03 in1016.9 mb 0.00 in0.0 mm 0.00 in0.0 mm 0.00 in0.0 mm
08:35 PM 35.5°F1.9°C 28.4°F-2.0°C 75% 5.0 mph SE8.0 kmh SE 8.0 mph12.9 kmh 30.03 in1016.9 mb 0.00 in0.0 mm 0.00 in0.0 mm 0.00 in0.0 mm
08:40 PM 35.5°F1.9°C 28.4°F-2.0°C 75% 3.0 mph SE4.8 kmh SE 8.0 mph12.9 kmh 30.03 in1016.9 mb 0.00 in0.0 mm 0.00 in0.0 mm 0.00 in0.0 mm
08:45 PM 35.5°F1.9°C 28.4°F-2.0°C 75% 4.0 mph SSE6.4 kmh SSE 10.0 mph16.1 kmh 30.03 in1016.9 mb 0.00 in0.0 mm 0.00 in0.0 mm 0.00 in0.0 mm
08:50 PM 35.4°F1.9°C 28.3°F-2.1°C 75% 5.0 mph SE8.0 kmh SE 12.0 mph19.3 kmh 30.03 in1016.9 mb 0.00 in0.0 mm 0.00 in0.0 mm 0.00 in0.0 mm
08:55 PM 35.4°F1.9°C 28.3°F-2.1°C 75% 2.0 mph SE3.2 kmh SE 12.0 mph19.3 kmh 30.03 in1016.9 mb 0.00 in0.0 mm 0.00 in0.0 mm 0.00 in0.0 mm
09:00 PM 35.3°F1.8°C 27.9°F-2.3°C 74% 3.0 mph ESE4.8 kmh ESE 12.0 mph19.3 kmh 30.03 in1016.9 mb 0.00 in0.0 mm 0.00 in0.0 mm 0.00 in0.0 mm
09:05 PM 35.3°F1.8°C 27.9°F-2.3°C 74% Calm Calm 9.0 mph14.5 kmh 30.03 in1016.9 mb 0.00 in0.0 mm 0.00 in0.0 mm 0.00 in0.0 mm
09:10 PM 35.3°F1.8°C 27.9°F-2.3°C 74% 4.0 mph SE6.4 kmh SE 9.0 mph14.5 kmh 30.04 in1017.3 mb 0.00 in0.0 mm 0.00 in0.0 mm 0.00 in0.0 mm
09:15 PM 35.3°F1.8°C 27.5°F-2.5°C 73% 6.0 mph ESE9.7 kmh ESE 12.0 mph19.3 kmh 30.03 in1016.9 mb 0.00 in0.0 mm 0.00 in0.0 mm 0.00 in0.0 mm
09:20 PM 35.4°F1.9°C 27.6°F-2.4°C 73% 1.0 mph ESE1.6 kmh ESE 8.0 mph12.9 kmh 30.04 in1017.3 mb 0.00 in0.0 mm 0.00 in0.0 mm 0.00 in0.0 mm
09:25 PM 35.4°F1.9°C 27.3°F-2.6°C 72% Calm Calm 8.0 mph12.9 kmh 30.04 in1017.3 mb 0.00 in0.0 mm 0.00 in0.0 mm 0.00 in0.0 mm
09:30 PM 35.4°F1.9°C 27.3°F-2.6°C 72% 2.0 mph SE3.2 kmh SE 8.0 mph12.9 kmh 30.04 in1017.3 mb 0.00 in0.0 mm 0.00 in0.0 mm 0.00 in0.0 mm
09:35 PM 35.4°F1.9°C 27.0°F-2.8°C 71% 1.0 mph SE1.6 kmh SE 8.0 mph12.9 kmh 30.04 in1017.3 mb 0.00 in0.0 mm 0.00 in0.0 mm 0.00 in0.0 mm
09:40 PM 35.4°F1.9°C 27.0°F-2.8°C 71% 5.0 mph SE8.0 kmh SE 8.0 mph12.9 kmh 30.04 in1017.3 mb 0.00 in0.0 mm 0.00 in0.0 mm 0.00 in0.0 mm
09:45 PM 35.3°F1.8°C 26.9°F-2.8°C 71% 4.0 mph SSE6.4 kmh SSE 10.0 mph16.1 kmh 30.04 in1017.3 mb 0.00 in0.0 mm 0.00 in0.0 mm 0.00 in0.0 mm
09:50 PM 35.1°F1.7°C 26.7°F-2.9°C 71% 2.0 mph SE3.2 kmh SE 10.0 mph16.1 kmh 30.04 in1017.3 mb 0.00 in0.0 mm 0.00 in0.0 mm 0.00 in0.0 mm
09:55 PM 35.0°F1.7°C 26.6°F-3.0°C 71% 5.0 mph SE8.0 kmh SE 10.0 mph16.1 kmh 30.04 in1017.3 mb 0.00 in0.0 mm 0.00 in0.0 mm 0.00 in0.0 mm
10:00 PM 34.9°F1.6°C 26.5°F-3.1°C 71% 6.0 mph SE9.7 kmh SE 10.0 mph16.1 kmh 30.04 in1017.3 mb 0.00 in0.0 mm 0.00 in0.0 mm 0.00 in0.0 mm
10:05 PM 34.9°F1.6°C 26.5°F-3.1°C 71% 4.0 mph ESE6.4 kmh ESE 9.0 mph14.5 kmh 30.04 in1017.3 mb 0.00 in0.0 mm 0.00 in0.0 mm 0.00 in0.0 mm
10:10 PM 35.0°F1.7°C 26.6°F-3.0°C 71% 2.0 mph SE3.2 kmh SE 11.0 mph17.7 kmh 30.04 in1017.3 mb 0.00 in0.0 mm 0.00 in0.0 mm 0.00 in0.0 mm
10:15 PM 35.0°F1.7°C 26.6°F-3.0°C 71% 3.0 mph ESE4.8 kmh ESE 11.0 mph17.7 kmh 30.04 in1017.3 mb 0.00 in0.0 mm 0.00 in0.0 mm 0.00 in0.0 mm
10:20 PM 35.0°F1.7°C 26.2°F-3.2°C 70% 4.0 mph ESE6.4 kmh ESE 12.0 mph19.3 kmh 30.04 in1017.3 mb 0.00 in0.0 mm 0.00 in0.0 mm 0.00 in0.0 mm
10:25 PM 34.9°F1.6°C 26.1°F-3.3°C 70% 6.0 mph ESE9.7 kmh ESE 12.0 mph19.3 kmh 30.04 in1017.3 mb 0.00 in0.0 mm 0.00 in0.0 mm 0.00 in0.0 mm
10:30 PM 34.9°F1.6°C 26.1°F-3.3°C 70% 4.0 mph ESE6.4 kmh ESE 12.0 mph19.3 kmh 30.04 in1017.3 mb 0.00 in0.0 mm 0.00 in0.0 mm 0.00 in0.0 mm
10:35 PM 34.8°F1.6°C 26.0°F-3.3°C 70% 5.0 mph ESE8.0 kmh ESE 8.0 mph12.9 kmh 30.04 in1017.3 mb 0.00 in0.0 mm 0.00 in0.0 mm 0.00 in0.0 mm
10:40 PM 34.7°F1.5°C 25.6°F-3.6°C 69% 7.0 mph SE11.3 kmh SE 11.0 mph17.7 kmh 30.04 in1017.3 mb 0.00 in0.0 mm 0.00 in0.0 mm 0.00 in0.0 mm
10:45 PM 34.8°F1.6°C 25.7°F-3.5°C 69% 3.0 mph SE4.8 kmh SE 12.0 mph19.3 kmh 30.04 in1017.3 mb 0.00 in0.0 mm 0.00 in0.0 mm 0.00 in0.0 mm
10:50 PM 34.7°F1.5°C 25.2°F-3.8°C 68% 3.0 mph SE4.8 kmh SE 3.0 mph4.8 kmh 30.04 in1017.3 mb 0.00 in0.0 mm 0.00 in0.0 mm 0.00 in0.0 mm
10:55 PM 34.7°F1.5°C 25.2°F-3.8°C 68% 3.0 mph SE4.8 kmh SE 3.0 mph4.8 kmh 30.04 in1017.3 mb 0.00 in0.0 mm 0.00 in0.0 mm 0.00 in0.0 mm
11:00 PM 34.5°F1.4°C 25.0°F-3.9°C 68% 3.0 mph SE4.8 kmh SE 3.0 mph4.8 kmh 30.04 in1017.3 mb 0.00 in0.0 mm 0.00 in0.0 mm 0.00 in0.0 mm
11:05 PM 34.4°F1.3°C 25.0°F-3.9°C 68% 3.0 mph SE4.8 kmh SE 3.0 mph4.8 kmh 30.04 in1017.3 mb 0.00 in0.0 mm 0.00 in0.0 mm 0.00 in0.0 mm
11:10 PM 34.4°F1.3°C 25.0°F-3.9°C 68% 3.0 mph SE4.8 kmh SE 3.0 mph4.8 kmh 30.04 in1017.3 mb 0.00 in0.0 mm 0.00 in0.0 mm 0.00 in0.0 mm
11:15 PM 34.4°F1.3°C 25.0°F-3.9°C 68% 3.0 mph SE4.8 kmh SE 3.0 mph4.8 kmh 30.04 in1017.3 mb 0.00 in0.0 mm 0.00 in0.0 mm 0.00 in0.0 mm
11:20 PM 34.4°F1.3°C 25.0°F-3.9°C 68% 3.0 mph SE4.8 kmh SE 3.0 mph4.8 kmh 30.05 in1017.6 mb 0.00 in0.0 mm 0.00 in0.0 mm 0.00 in0.0 mm
11:25 PM 34.4°F1.3°C 25.0°F-3.9°C 68% 3.0 mph SE4.8 kmh SE 3.0 mph4.8 kmh 30.05 in1017.6 mb 0.00 in0.0 mm 0.00 in0.0 mm 0.00 in0.0 mm
11:30 PM 34.3°F1.3°C 24.9°F-3.9°C 68% 8.0 mph SE12.9 kmh SE 9.0 mph14.5 kmh 30.05 in1017.6 mb 0.00 in0.0 mm 0.00 in0.0 mm 0.00 in0.0 mm
11:35 PM 34.3°F1.3°C 24.9°F-3.9°C 68% 4.0 mph SE6.4 kmh SE 11.0 mph17.7 kmh 30.05 in1017.6 mb 0.00 in0.0 mm 0.00 in0.0 mm 0.00 in0.0 mm
11:40 PM 34.1°F1.2°C 24.7°F-4.1°C 68% 2.0 mph ESE3.2 kmh ESE 11.0 mph17.7 kmh 30.05 in1017.6 mb 0.00 in0.0 mm 0.00 in0.0 mm 0.00 in0.0 mm
11:45 PM 34.0°F1.1°C 24.6°F-4.1°C 68% 4.0 mph ESE6.4 kmh ESE 11.0 mph17.7 kmh 30.05 in1017.6 mb 0.00 in0.0 mm 0.00 in0.0 mm 0.00 in0.0 mm
11:50 PM 34.0°F1.1°C 24.6°F-4.1°C 68% Calm Calm 8.0 mph12.9 kmh 30.06 in1017.9 mb 0.00 in0.0 mm 0.00 in0.0 mm 0.00 in0.0 mm
11:55 PM 33.8°F1.0°C 24.4°F-4.2°C 68% 7.0 mph E11.3 kmh E 8.0 mph12.9 kmh 30.06 in1017.9 mb 0.00 in0.0 mm 0.00 in0.0 mm 0.00 in0.0 mm